Time,TemperatureF,DewpointF,PressureIn,WindDirection,WindDirectionDegrees,WindSpeedMPH,WindSpeedGustMPH,Humidity,HourlyPrecipIn,Conditions,Clouds,dailyrainin,SoftwareType,DateUTC
2013-04-27 00:02:00,35.0,33.0,-100.00,ENE,60,0.0,1.0,91,-99.99,,,-99.99,,2013-04-27 05:02:00,
2013-04-27 00:12:00,35.0,33.0,-100.00,ENE,60,0.0,1.0,91,-99.99,,,-99.99,,2013-04-27 05:12:00,
2013-04-27 00:22:00,35.0,33.0,-100.00,ENE,60,0.0,1.0,91,-99.99,,,-99.99,,2013-04-27 05:22:00,
2013-04-27 00:42:00,33.0,32.0,-100.00,ESE,120,1.0,1.0,95,-99.99,,,-99.99,,2013-04-27 05:42:00,
2013-04-27 00:52:00,33.0,32.0,-100.00,ESE,120,1.0,1.0,95,-99.99,,,-99.99,,2013-04-27 05:52:00,
2013-04-27 01:02:00,33.0,32.0,-100.00,ESE,120,1.0,1.0,95,-99.99,,,-99.99,,2013-04-27 06:02:00,
2013-04-27 01:12:00,33.0,32.0,-100.00,ESE,120,1.0,1.0,95,-99.99,,,-99.99,,2013-04-27 06:12:00,
2013-04-27 01:22:00,33.0,32.0,-100.00,ESE,120,1.0,1.0,95,-99.99,,,-99.99,,2013-04-27 06:22:00,
2013-04-27 01:52:00,32.0,31.0,-100.00,SE,130,1.0,1.0,97,-99.99,,,-99.99,,2013-04-27 06:52:00,
2013-04-27 02:01:00,32.0,31.0,-100.00,SE,130,1.0,1.0,97,-99.99,,,-99.99,,2013-04-27 07:01:00,
2013-04-27 02:11:00,32.0,31.0,-100.00,SE,130,1.0,1.0,97,-99.99,,,-99.99,,2013-04-27 07:11:00,
2013-04-27 02:21:00,32.0,31.0,-100.00,SE,130,1.0,1.0,97,-99.99,,,-99.99,,2013-04-27 07:21:00,
2013-04-27 02:42:00,32.0,31.0,-100.00,SE,145,1.0,2.0,98,-99.99,,,-99.99,,2013-04-27 07:42:00,
2013-04-27 02:52:00,32.0,31.0,-100.00,SE,145,1.0,2.0,98,-99.99,,,-99.99,,2013-04-27 07:52:00,
2013-04-27 03:01:00,32.0,31.0,-100.00,SE,145,1.0,2.0,98,-99.99,,,-99.99,,2013-04-27 08:01:00,
2013-04-27 03:11:00,32.0,31.0,-100.00,SE,145,1.0,2.0,98,-99.99,,,-99.99,,2013-04-27 08:11:00,
2013-04-27 03:21:00,32.0,31.0,-100.00,SE,145,1.0,2.0,98,-99.99,,,-99.99,,2013-04-27 08:21:00,
2013-04-27 03:42:00,30.0,30.0,-100.00,SE,145,0.0,0.0,99,-99.99,,,-99.99,,2013-04-27 08:42:00,
2013-04-27 03:52:00,30.0,30.0,-100.00,SE,145,0.0,0.0,99,-99.99,,,-99.99,,2013-04-27 08:52:00,
2013-04-27 04:01:00,30.0,30.0,-100.00,SE,145,0.0,0.0,99,-99.99,,,-99.99,,2013-04-27 09:01:00,
2013-04-27 04:11:00,30.0,30.0,-100.00,SE,145,0.0,0.0,99,-99.99,,,-99.99,,2013-04-27 09:11:00,
2013-04-27 04:21:00,30.0,30.0,-100.00,SE,145,0.0,0.0,99,-99.99,,,-99.99,,2013-04-27 09:21:00,
2013-04-27 04:43:00,29.0,29.0,-100.00,North,0,1.0,1.0,99,-99.99,,,-99.99,,2013-04-27 09:43:00,
2013-04-27 04:53:00,29.0,29.0,-100.00,North,0,1.0,1.0,99,-99.99,,,-99.99,,2013-04-27 09:53:00,
2013-04-27 05:02:00,29.0,29.0,-100.00,North,0,1.0,1.0,99,-99.99,,,-99.99,,2013-04-27 10:02:00,
2013-04-27 05:12:00,29.0,29.0,-100.00,North,0,1.0,1.0,99,-99.99,,,-99.99,,2013-04-27 10:12:00,
2013-04-27 05:22:00,29.0,29.0,-100.00,North,0,1.0,1.0,99,-99.99,,,-99.99,,2013-04-27 10:22:00,
2013-04-27 05:52:00,30.0,30.0,-100.00,SSE,150,0.0,2.0,99,-99.99,,,-99.99,,2013-04-27 10:52:00,
2013-04-27 06:02:00,30.0,30.0,-100.00,SSE,150,0.0,2.0,99,-99.99,,,-99.99,,2013-04-27 11:02:00,
2013-04-27 06:12:00,30.0,30.0,-100.00,SSE,150,0.0,2.0,99,-99.99,,,-99.99,,2013-04-27 11:12:00,
2013-04-27 06:22:00,30.0,30.0,-100.00,SSE,150,0.0,2.0,99,-99.99,,,-99.99,,2013-04-27 11:22:00,
2013-04-27 06:42:00,31.0,31.0,-100.00,SE,145,0.0,1.0,99,-99.99,,,-99.99,,2013-04-27 11:42:00,
2013-04-27 06:52:00,31.0,31.0,-100.00,SE,145,0.0,1.0,99,-99.99,,,-99.99,,2013-04-27 11:52:00,
2013-04-27 07:01:00,31.0,31.0,-100.00,SE,145,0.0,1.0,99,-99.99,,,-99.99,,2013-04-27 12:01:00,
2013-04-27 07:11:00,31.0,31.0,-100.00,SE,145,0.0,1.0,99,-99.99,,,-99.99,,2013-04-27 12:11:00,
2013-04-27 07:21:00,31.0,31.0,-100.00,SE,145,0.0,1.0,99,-99.99,,,-99.99,,2013-04-27 12:21:00,
2013-04-27 07:42:00,35.0,35.0,-100.00,SE,145,1.0,2.0,99,-99.99,,,-99.99,,2013-04-27 12:42:00,
2013-04-27 07:52:00,35.0,35.0,-100.00,SE,145,1.0,2.0,99,-99.99,,,-99.99,,2013-04-27 12:52:00,
2013-04-27 08:02:00,35.0,35.0,-100.00,SE,145,1.0,2.0,99,-99.99,,,-99.99,,2013-04-27 13:02:00,
2013-04-27 08:11:00,35.0,35.0,-100.00,SE,145,1.0,2.0,99,-99.99,,,-99.99,,2013-04-27 13:11:00,
2013-04-27 08:21:00,35.0,35.0,-100.00,SE,145,1.0,2.0,99,-99.99,,,-99.99,,2013-04-27 13:21:00,
2013-04-27 08:42:00,49.0,42.0,-100.00,South,190,4.0,6.0,79,-99.99,,,-99.99,,2013-04-27 13:42:00,
2013-04-27 08:52:00,49.0,42.0,-100.00,South,190,4.0,6.0,79,-99.99,,,-99.99,,2013-04-27 13:52:00,
2013-04-27 09:02:00,49.0,42.0,-100.00,South,190,4.0,6.0,79,-99.99,,,-99.99,,2013-04-27 14:02:00,
2013-04-27 09:11:00,49.0,42.0,-100.00,South,190,4.0,6.0,79,-99.99,,,-99.99,,2013-04-27 14:11:00,
2013-04-27 09:21:00,49.0,42.0,-100.00,South,190,4.0,6.0,79,-99.99,,,-99.99,,2013-04-27 14:21:00,
2013-04-27 09:52:00,56.0,42.0,-100.00,WSW,255,2.0,6.0,59,-99.99,,,-99.99,,2013-04-27 14:52:00,
2013-04-27 10:01:00,56.0,42.0,-100.00,WSW,255,2.0,6.0,59,-99.99,,,-99.99,,2013-04-27 15:01:00,
2013-04-27 10:12:00,56.0,42.0,-100.00,WSW,255,2.0,6.0,59,-99.99,,,-99.99,,2013-04-27 15:12:00,
2013-04-27 10:22:00,56.0,42.0,-100.00,WSW,255,2.0,6.0,59,-99.99,,,-99.99,,2013-04-27 15:22:00,
2013-04-27 10:43:00,59.0,42.0,-100.00,SSW,210,2.0,6.0,53,-99.99,,,-99.99,,2013-04-27 15:43:00,
2013-04-27 10:53:00,59.0,42.0,-100.00,SSW,210,2.0,6.0,53,-99.99,,,-99.99,,2013-04-27 15:53:00,
2013-04-27 11:03:00,59.0,42.0,-100.00,SSW,210,2.0,6.0,53,-99.99,,,-99.99,,2013-04-27 16:03:00,
2013-04-27 11:13:00,59.0,42.0,-100.00,SSW,210,2.0,6.0,53,-99.99,,,-99.99,,2013-04-27 16:13:00,
2013-04-27 11:22:00,59.0,42.0,-100.00,SSW,210,2.0,6.0,53,-99.99,,,-99.99,,2013-04-27 16:22:00,
2013-04-27 11:42:00,64.0,41.0,-100.00,SSW,210,4.0,8.0,44,-99.99,,,-99.99,,2013-04-27 16:42:00,
2013-04-27 11:53:00,64.0,41.0,-100.00,SSW,210,4.0,8.0,44,-99.99,,,-99.99,,2013-04-27 16:53:00,
2013-04-27 12:02:00,64.0,41.0,-100.00,SSW,210,4.0,8.0,44,-99.99,,,-99.99,,2013-04-27 17:02:00,
2013-04-27 12:12:00,64.0,41.0,-100.00,SSW,210,4.0,8.0,44,-99.99,,,-99.99,,2013-04-27 17:12:00,
2013-04-27 12:22:00,64.0,41.0,-100.00,SSW,210,4.0,8.0,44,-99.99,,,-99.99,,2013-04-27 17:22:00,
2013-04-27 12:42:00,67.0,38.0,-100.00,SW,225,2.0,9.0,35,-99.99,,,-99.99,,2013-04-27 17:42:00,
2013-04-27 12:53:00,67.0,38.0,-100.00,SW,225,2.0,9.0,35,-99.99,,,-99.99,,2013-04-27 17:53:00,
2013-04-27 13:02:00,67.0,38.0,-100.00,SW,225,2.0,9.0,35,-99.99,,,-99.99,,2013-04-27 18:02:00,
2013-04-27 13:12:00,67.0,38.0,-100.00,SW,225,2.0,9.0,35,-99.99,,,-99.99,,2013-04-27 18:12:00,
2013-04-27 13:22:00,67.0,38.0,-100.00,SW,225,2.0,9.0,35,-99.99,,,-99.99,,2013-04-27 18:22:00,
2013-04-27 13:52:00,69.0,35.0,-100.00,WSW,245,4.0,13.0,29,-99.99,,,-99.99,,2013-04-27 18:52:00,
2013-04-27 14:02:00,69.0,35.0,-100.00,WSW,245,4.0,13.0,29,-99.99,,,-99.99,,2013-04-27 19:02:00,
2013-04-27 14:11:00,69.0,35.0,-100.00,WSW,245,4.0,13.0,29,-99.99,,,-99.99,,2013-04-27 19:11:00,
2013-04-27 14:21:00,69.0,35.0,-100.00,WSW,245,4.0,13.0,29,-99.99,,,-99.99,,2013-04-27 19:21:00,
2013-04-27 14:42:00,69.0,35.0,-100.00,SSW,195,3.0,7.0,29,-99.99,,,-99.99,,2013-04-27 19:42:00,
2013-04-27 14:53:00,69.0,35.0,-100.00,SSW,195,3.0,7.0,29,-99.99,,,-99.99,,2013-04-27 19:53:00,
2013-04-27 15:02:00,69.0,35.0,-100.00,SSW,195,3.0,7.0,29,-99.99,,,-99.99,,2013-04-27 20:02:00,
2013-04-27 15:11:00,69.0,35.0,-100.00,SSW,195,3.0,7.0,29,-99.99,,,-99.99,,2013-04-27 20:11:00,
2013-04-27 15:21:00,69.0,35.0,-100.00,SSW,195,3.0,7.0,29,-99.99,,,-99.99,,2013-04-27 20:21:00,
2013-04-27 15:52:00,70.0,33.0,-100.00,SW,230,4.0,9.0,26,-99.99,,,-99.99,,2013-04-27 20:52:00,
2013-04-27 16:02:00,70.0,33.0,-100.00,SW,230,4.0,9.0,26,-99.99,,,-99.99,,2013-04-27 21:02:00,
2013-04-27 16:12:00,70.0,33.0,-100.00,SW,230,4.0,9.0,26,-99.99,,,-99.99,,2013-04-27 21:12:00,
2013-04-27 16:21:00,70.0,33.0,-100.00,SW,230,4.0,9.0,26,-99.99,,,-99.99,,2013-04-27 21:21:00,
2013-04-27 16:43:00,68.0,33.0,-100.00,WSW,245,7.0,14.0,28,-99.99,,,-99.99,,2013-04-27 21:43:00,
2013-04-27 16:53:00,68.0,33.0,-100.00,WSW,245,7.0,14.0,28,-99.99,,,-99.99,,2013-04-27 21:53:00,
2013-04-27 17:02:00,68.0,33.0,-100.00,WSW,245,7.0,14.0,28,-99.99,,,-99.99,,2013-04-27 22:02:00,
2013-04-27 17:13:00,68.0,33.0,-100.00,WSW,245,7.0,14.0,28,-99.99,,,-99.99,,2013-04-27 22:13:00,
2013-04-27 17:22:00,68.0,33.0,-100.00,WSW,245,7.0,14.0,28,-99.99,,,-99.99,,2013-04-27 22:22:00,
2013-04-27 17:53:00,68.0,34.0,-100.00,South,175,4.0,12.0,28,-99.99,,,-99.99,,2013-04-27 22:53:00,
2013-04-27 18:02:00,68.0,34.0,-100.00,South,175,4.0,12.0,28,-99.99,,,-99.99,,2013-04-27 23:02:00,
2013-04-27 18:11:00,68.0,34.0,-100.00,South,175,4.0,12.0,28,-99.99,,,-99.99,,2013-04-27 23:11:00,
2013-04-27 18:22:00,68.0,34.0,-100.00,South,175,4.0,12.0,28,-99.99,,,-99.99,,2013-04-27 23:22:00,
2013-04-27 18:42:00,66.0,35.0,-100.00,SE,140,1.0,7.0,31,-99.99,,,-99.99,,2013-04-27 23:42:00,
2013-04-27 18:52:00,66.0,35.0,-100.00,SE,140,1.0,7.0,31,-99.99,,,-99.99,,2013-04-27 23:52:00,
2013-04-27 19:01:00,66.0,35.0,-100.00,SE,140,1.0,7.0,31,-99.99,,,-99.99,,2013-04-28 00:01:00,
2013-04-27 19:11:00,66.0,35.0,-100.00,SE,140,1.0,7.0,31,-99.99,,,-99.99,,2013-04-28 00:11:00,
2013-04-27 19:21:00,66.0,35.0,-100.00,SE,140,1.0,7.0,31,-99.99,,,-99.99,,2013-04-28 00:21:00,
2013-04-27 19:52:00,61.0,36.0,-100.00,SW,220,1.0,4.0,39,-99.99,,,-99.99,,2013-04-28 00:52:00,
2013-04-27 20:01:00,61.0,36.0,-100.00,SW,220,1.0,4.0,39,-99.99,,,-99.99,,2013-04-28 01:01:00,
2013-04-27 20:11:00,61.0,36.0,-100.00,SW,220,1.0,4.0,39,-99.99,,,-99.99,,2013-04-28 01:11:00,
2013-04-27 20:21:00,61.0,36.0,-100.00,SW,220,1.0,4.0,39,-99.99,,,-99.99,,2013-04-28 01:21:00,
2013-04-27 20:52:00,52.0,39.0,-100.00,SSE,160,1.0,1.0,61,-99.99,,,-99.99,,2013-04-28 01:52:00,
2013-04-27 21:02:00,52.0,39.0,-100.00,SSE,160,1.0,1.0,61,-99.99,,,-99.99,,2013-04-28 02:02:00,
2013-04-27 21:12:00,52.0,39.0,-100.00,SSE,160,1.0,1.0,61,-99.99,,,-99.99,,2013-04-28 02:12:00,
2013-04-27 21:22:00,52.0,39.0,-100.00,SSE,160,1.0,1.0,61,-99.99,,,-99.99,,2013-04-28 02:22:00,
2013-04-27 21:52:00,47.0,39.0,-100.00,SSE,160,0.0,1.0,73,-99.99,,,-99.99,,2013-04-28 02:52:00,
2013-04-27 22:01:00,47.0,39.0,-100.00,SSE,160,0.0,1.0,73,-99.99,,,-99.99,,2013-04-28 03:01:00,
2013-04-27 22:11:00,47.0,39.0,-100.00,SSE,160,0.0,1.0,73,-99.99,,,-99.99,,2013-04-28 03:11:00,
2013-04-27 22:21:00,47.0,39.0,-100.00,SSE,160,0.0,1.0,73,-99.99,,,-99.99,,2013-04-28 03:21:00,
2013-04-27 22:53:00,50.0,43.0,-100.00,SSE,160,2.0,6.0,77,-99.99,,,-99.99,,2013-04-28 03:53:00,
2013-04-27 23:03:00,50.0,43.0,-100.00,SSE,160,2.0,6.0,77,-99.99,,,-99.99,,2013-04-28 04:03:00,
2013-04-27 23:13:00,50.0,43.0,-100.00,SSE,160,2.0,6.0,77,-99.99,,,-99.99,,2013-04-28 04:13:00,
2013-04-27 23:23:00,50.0,43.0,-100.00,SSE,160,2.0,6.0,77,-99.99,,,-99.99,,2013-04-28 04:23:00,
2013-04-27 23:43:00,54.0,43.0,-100.00,South,175,2.0,5.0,68,-99.99,,,-99.99,,2013-04-28 04:43:00,
2013-04-27 23:53:00,54.0,43.0,-100.00,South,175,2.0,5.0,68,-99.99,,,-99.99,,2013-04-28 04:53:00,